KTYR

Tyler Pounds Regional Airport

Tyler, Texas, USA
KTYR 241723Z 2418/2518 21008KT P6SM BKN015 OVC045 FM242300 20007KT P6SM BKN045 FM250200 15004KT P6SM SKC FM251000 18005KT 4SM BR OVC007 FM251600 20008KT P6SM BKN015
Issued Valid From Valid To
Sep-24 @ 17:23 UTC
(2 hours ago)
Sep-24 @ 18:00 UTC
(an hour ago)
Sep-25 @ 18:00 UTC
(in 23 hours)
Sep-24 @ 18:00 to Sep-24 @ 23:00
KTYR 241723Z 2418/2518 21008KT P6SM BKN015 OVC045
Wind Visibility Clouds
210° at 8 knots Greater than 6 miles
  • Broken at 1,500' AGL
  • Overcast at 4,500' AGL
From Sep-24 @ 23:00 to Sep-25 @ 02:00
FM242300 20007KT P6SM BKN045
Wind Visibility Clouds
200° at 7 knots Greater than 6 miles
  • Broken at 4,500' AGL
From Sep-25 @ 02:00 to Sep-25 @ 10:00
FM250200 15004KT P6SM SKC
Wind Visibility Clouds
150° at 4 knots Greater than 6 miles
  • Clear skies
From Sep-25 @ 10:00 to Sep-25 @ 16:00
FM251000 18005KT 4SM BR OVC007
Wind Visibility Clouds Conditions
180° at 5 knots 4 miles
  • Overcast at 700' AGL
  • Mist
From Sep-25 @ 16:00 to Sep-25 @ 18:00
FM251600 20008KT P6SM BKN015
Wind Visibility Clouds
200° at 8 knots Greater than 6 miles
  • Broken at 1,500' AGL
KTYR 241723Z 2418/2518 21008KT P6SM BKN015 OVC045 FM242300 20007KT P6SM BKN045 FM250200 15004KT P6SM SKC FM251000 18005KT 4SM BR OVC007 FM251600 20008KT P6SM BKN015
Issued Sep-24 @ 17:23 UTC
(2 hours ago)
Valid From Sep-24 @ 18:00 UTC
(an hour ago)
Valid To Sep-25 @ 18:00 UTC
(in 23 hours)
Sep-24 @ 18:00 - Sep-24 @ 23:00
Wind Visibility
210° at 8 knots Greater than 6 miles
Clouds
  • Broken at 1,500' AGL
  • Overcast at 4,500' AGL
From Sep-24 @ 23:00 - Sep-25 @ 02:00
Wind Visibility
200° at 7 knots Greater than 6 miles
Clouds
  • Broken at 4,500' AGL
From Sep-25 @ 02:00 - Sep-25 @ 10:00
Wind Visibility
150° at 4 knots Greater than 6 miles
Clouds
  • Clear skies
From Sep-25 @ 10:00 - Sep-25 @ 16:00
Wind Visibility
180° at 5 knots 4 miles
Clouds
  • Overcast at 700' AGL
Conditions
  • Mist
From Sep-25 @ 16:00 - Sep-25 @ 18:00
Wind Visibility
200° at 8 knots Greater than 6 miles
Clouds
  • Broken at 1,500' AGL